sensor_id;sensor_type;location;lat;lon;timestamp;pressure;altitude;pressure_sealevel;temperature;humidity
19259;BME280;9763;48.780;9.212;2023-01-26T00:03:03;98959.56;;;6.21;74.13
19259;BME280;9763;48.780;9.212;2023-01-26T00:06:27;98950.94;;;6.20;73.68
19259;BME280;9763;48.780;9.212;2023-01-26T00:09:51;98954.84;;;6.30;74.10
19259;BME280;9763;48.780;9.212;2023-01-26T00:13:16;98941.72;;;6.35;74.26
19259;BME280;9763;48.780;9.212;2023-01-26T00:16:42;98944.31;;;6.35;73.41
19259;BME280;9763;48.780;9.212;2023-01-26T00:20:07;98939.44;;;6.27;73.23
19259;BME280;9763;48.780;9.212;2023-01-26T00:23:33;98924.38;;;6.15;73.69
19259;BME280;9763;48.780;9.212;2023-01-26T00:26:57;98925.50;;;6.08;73.48
19259;BME280;9763;48.780;9.212;2023-01-26T00:30:21;98923.75;;;6.08;73.77
19259;BME280;9763;48.780;9.212;2023-01-26T00:33:46;98918.69;;;6.05;73.47
19259;BME280;9763;48.780;9.212;2023-01-26T00:37:10;98906.56;;;6.06;73.87
19259;BME280;9763;48.780;9.212;2023-01-26T00:40:33;98909.88;;;6.09;73.99
19259;BME280;9763;48.780;9.212;2023-01-26T00:43:57;98898.63;;;6.10;73.47
19259;BME280;9763;48.780;9.212;2023-01-26T00:47:20;98894.13;;;6.16;74.10
19259;BME280;9763;48.780;9.212;2023-01-26T00:50:45;98892.22;;;6.19;73.33
19259;BME280;9763;48.780;9.212;2023-01-26T00:54:09;98895.56;;;6.23;74.00
19259;BME280;9763;48.780;9.212;2023-01-26T00:57:33;98886.81;;;6.25;73.63
19259;BME280;9763;48.780;9.212;2023-01-26T01:00:57;98891.03;;;6.28;73.48
19259;BME280;9763;48.780;9.212;2023-01-26T01:04:21;98891.84;;;6.28;73.23
19259;BME280;9763;48.780;9.212;2023-01-26T01:07:45;98881.50;;;6.28;73.17
19259;BME280;9763;48.780;9.212;2023-01-26T01:11:10;98883.97;;;6.31;73.69
19259;BME280;9763;48.780;9.212;2023-01-26T01:14:34;98874.50;;;6.30;73.20
19259;BME280;9763;48.780;9.212;2023-01-26T01:17:57;98884.75;;;6.33;73.97
19259;BME280;9763;48.780;9.212;2023-01-26T01:21:24;98883.00;;;6.34;73.16
19259;BME280;9763;48.780;9.212;2023-01-26T01:24:49;98887.28;;;6.35;73.85
19259;BME280;9763;48.780;9.212;2023-01-26T01:28:13;98882.34;;;6.29;73.32
19259;BME280;9763;48.780;9.212;2023-01-26T01:31:36;98879.63;;;6.32;73.80
19259;BME280;9763;48.780;9.212;2023-01-26T01:35:00;98879.69;;;6.30;73.11
19259;BME280;9763;48.780;9.212;2023-01-26T01:38:25;98872.13;;;6.26;73.70
19259;BME280;9763;48.780;9.212;2023-01-26T01:41:50;98875.59;;;6.25;73.32
19259;BME280;9763;48.780;9.212;2023-01-26T01:45:41;98874.16;;;6.18;73.27
19259;BME280;9763;48.780;9.212;2023-01-26T01:49:13;98867.38;;;6.15;74.21
19259;BME280;9763;48.780;9.212;2023-01-26T01:52:39;98868.25;;;6.14;74.27
19259;BME280;9763;48.780;9.212;2023-01-26T01:56:10;98864.03;;;6.11;73.42
19259;BME280;9763;48.780;9.212;2023-01-26T01:59:35;98860.59;;;6.11;73.76
19259;BME280;9763;48.780;9.212;2023-01-26T02:03:03;98863.13;;;6.12;73.94
19259;BME280;9763;48.780;9.212;2023-01-26T02:06:42;98863.97;;;6.13;74.19
19259;BME280;9763;48.780;9.212;2023-01-26T02:10:10;98855.31;;;6.14;73.59
19259;BME280;9763;48.780;9.212;2023-01-26T02:13:46;98849.50;;;6.07;73.77
19259;BME280;9763;48.780;9.212;2023-01-26T02:17:12;98846.06;;;6.07;73.61
19259;BME280;9763;48.780;9.212;2023-01-26T02:20:43;98851.16;;;6.10;74.31
19259;BME280;9763;48.780;9.212;2023-01-26T02:24:16;98839.16;;;6.07;73.73
19259;BME280;9763;48.780;9.212;2023-01-26T02:27:45;98845.16;;;6.08;73.52
19259;BME280;9763;48.780;9.212;2023-01-26T02:31:10;98838.41;;;6.04;73.87
19259;BME280;9763;48.780;9.212;2023-01-26T02:34:34;98844.44;;;6.04;73.58
19259;BME280;9763;48.780;9.212;2023-01-26T02:37:58;98823.19;;;5.96;73.80
19259;BME280;9763;48.780;9.212;2023-01-26T02:41:22;98838.31;;;6.07;73.45
19259;BME280;9763;48.780;9.212;2023-01-26T02:45:09;98838.31;;;6.07;73.31
19259;BME280;9763;48.780;9.212;2023-01-26T02:48:33;98827.16;;;6.05;73.63
19259;BME280;9763;48.780;9.212;2023-01-26T02:52:10;98825.47;;;6.04;73.38
19259;BME280;9763;48.780;9.212;2023-01-26T02:55:34;98824.66;;;6.03;73.54
19259;BME280;9763;48.780;9.212;2023-01-26T02:58:57;98817.78;;;6.02;73.44
19259;BME280;9763;48.780;9.212;2023-01-26T03:02:22;98813.44;;;6.03;74.06
19259;BME280;9763;48.780;9.212;2023-01-26T03:05:46;98816.88;;;6.03;74.15
19259;BME280;9763;48.780;9.212;2023-01-26T03:09:10;98818.47;;;6.06;73.59
19259;BME280;9763;48.780;9.212;2023-01-26T03:12:35;98811.59;;;6.05;73.72
19259;BME280;9763;48.780;9.212;2023-01-26T03:15:59;98811.69;;;6.03;73.76
19259;BME280;9763;48.780;9.212;2023-01-26T03:19:30;98806.69;;;5.99;73.86
19259;BME280;9763;48.780;9.212;2023-01-26T03:23:11;98799.16;;;5.93;73.56
19259;BME280;9763;48.780;9.212;2023-01-26T03:26:52;98799.16;;;5.93;73.68
19259;BME280;9763;48.780;9.212;2023-01-26T03:30:34;98791.31;;;5.94;74.17
19259;BME280;9763;48.780;9.212;2023-01-26T03:33:58;98786.97;;;5.95;73.70
19259;BME280;9763;48.780;9.212;2023-01-26T03:37:24;98779.41;;;5.90;74.09
19259;BME280;9763;48.780;9.212;2023-01-26T03:40:57;98784.50;;;5.92;74.08
19259;BME280;9763;48.780;9.212;2023-01-26T03:44:38;98774.09;;;5.93;73.73
19259;BME280;9763;48.780;9.212;2023-01-26T03:48:20;98781.91;;;5.92;73.42
19259;BME280;9763;48.780;9.212;2023-01-26T03:52:01;98789.78;;;5.90;73.63
19259;BME280;9763;48.780;9.212;2023-01-26T03:55:45;98764.38;;;5.76;74.09
19259;BME280;9763;48.780;9.212;2023-01-26T03:59:28;98779.56;;;5.86;74.10
19259;BME280;9763;48.780;9.212;2023-01-26T04:03:12;98789.84;;;5.87;73.58
19259;BME280;9763;48.780;9.212;2023-01-26T04:06:53;98786.47;;;5.85;73.45
19259;BME280;9763;48.780;9.212;2023-01-26T04:10:39;98787.59;;;5.79;73.90
19259;BME280;9763;48.780;9.212;2023-01-26T04:14:04;98785.16;;;5.75;73.71
19259;BME280;9763;48.780;9.212;2023-01-26T04:17:46;98786.91;;;5.74;74.42
19259;BME280;9763;48.780;9.212;2023-01-26T04:21:28;98781.00;;;5.71;74.18
19259;BME280;9763;48.780;9.212;2023-01-26T04:24:54;98775.28;;;5.63;74.02
19259;BME280;9763;48.780;9.212;2023-01-26T04:28:18;98784.00;;;5.60;73.70
19259;BME280;9763;48.780;9.212;2023-01-26T04:31:43;98776.25;;;5.60;73.58
19259;BME280;9763;48.780;9.212;2023-01-26T04:35:11;98778.66;;;5.65;74.02
19259;BME280;9763;48.780;9.212;2023-01-26T04:38:37;98778.66;;;5.65;73.79
19259;BME280;9763;48.780;9.212;2023-01-26T04:42:01;98772.69;;;5.63;74.31
19259;BME280;9763;48.780;9.212;2023-01-26T04:45:25;98765.00;;;5.61;73.79
19259;BME280;9763;48.780;9.212;2023-01-26T04:48:50;98768.72;;;5.54;74.54
19259;BME280;9763;48.780;9.212;2023-01-26T04:52:14;98759.44;;;5.49;74.22
19259;BME280;9763;48.780;9.212;2023-01-26T04:55:39;98768.31;;;5.43;74.44
19259;BME280;9763;48.780;9.212;2023-01-26T04:59:05;98770.09;;;5.41;74.25
19259;BME280;9763;48.780;9.212;2023-01-26T05:02:31;98766.00;;;5.35;74.21
19259;BME280;9763;48.780;9.212;2023-01-26T05:05:56;98761.13;;;5.28;74.17
19259;BME280;9763;48.780;9.212;2023-01-26T05:09:19;98761.28;;;5.23;74.54
19259;BME280;9763;48.780;9.212;2023-01-26T05:12:55;98767.50;;;5.19;74.47
19259;BME280;9763;48.780;9.212;2023-01-26T05:16:28;98751.13;;;5.19;74.95
19259;BME280;9763;48.780;9.212;2023-01-26T05:20:15;98760.63;;;5.18;75.03
19259;BME280;9763;48.780;9.212;2023-01-26T05:23:58;98765.81;;;5.18;74.59
19259;BME280;9763;48.780;9.212;2023-01-26T05:27:42;98763.91;;;5.22;74.83
19259;BME280;9763;48.780;9.212;2023-01-26T05:31:06;98741.91;;;5.12;74.62
19259;BME280;9763;48.780;9.212;2023-01-26T05:34:30;98769.69;;;5.30;75.08
19259;BME280;9763;48.780;9.212;2023-01-26T05:37:54;98767.09;;;5.30;74.99
19259;BME280;9763;48.780;9.212;2023-01-26T05:41:20;98771.28;;;5.32;74.88
19259;BME280;9763;48.780;9.212;2023-01-26T05:45:16;98782.63;;;5.30;74.65
19259;BME280;9763;48.780;9.212;2023-01-26T05:48:40;98773.22;;;5.27;74.42
19259;BME280;9763;48.780;9.212;2023-01-26T05:52:07;98774.16;;;5.25;74.74
19259;BME280;9763;48.780;9.212;2023-01-26T05:55:34;98772.53;;;5.22;75.13
19259;BME280;9763;48.780;9.212;2023-01-26T05:58:59;98778.66;;;5.20;74.77
19259;BME280;9763;48.780;9.212;2023-01-26T06:02:23;98775.25;;;5.19;74.36
19259;BME280;9763;48.780;9.212;2023-01-26T06:05:52;98770.97;;;5.18;74.89
19259;BME280;9763;48.780;9.212;2023-01-26T06:09:27;98772.66;;;5.19;74.56
19259;BME280;9763;48.780;9.212;2023-01-26T06:13:29;98777.72;;;5.22;74.71
19259;BME280;9763;48.780;9.212;2023-01-26T06:17:09;98785.47;;;5.22;74.56
19259;BME280;9763;48.780;9.212;2023-01-26T06:20:34;98776.91;;;5.20;74.42
19259;BME280;9763;48.780;9.212;2023-01-26T06:23:59;98791.38;;;5.26;74.11
19259;BME280;9763;48.780;9.212;2023-01-26T06:27:23;98780.28;;;5.22;74.66
19259;BME280;9763;48.780;9.212;2023-01-26T06:30:47;98789.69;;;5.25;74.52
19259;BME280;9763;48.780;9.212;2023-01-26T06:34:12;98789.69;;;5.25;74.28
19259;BME280;9763;48.780;9.212;2023-01-26T06:37:37;98785.31;;;5.27;74.17
19259;BME280;9763;48.780;9.212;2023-01-26T06:41:00;98784.56;;;5.23;74.14
19259;BME280;9763;48.780;9.212;2023-01-26T06:44:25;98788.75;;;5.27;74.25
19259;BME280;9763;48.780;9.212;2023-01-26T06:47:50;98780.19;;;5.25;74.52
19259;BME280;9763;48.780;9.212;2023-01-26T06:51:53;98791.50;;;5.23;74.09
19259;BME280;9763;48.780;9.212;2023-01-26T06:55:35;98779.59;;;5.19;74.44
19259;BME280;9763;48.780;9.212;2023-01-26T06:59:18;98773.84;;;5.11;74.25
19259;BME280;9763;48.780;9.212;2023-01-26T07:03:00;98780.63;;;5.13;74.07
19259;BME280;9763;48.780;9.212;2023-01-26T07:06:23;98773.00;;;5.10;74.04
19259;BME280;9763;48.780;9.212;2023-01-26T07:09:48;98792.56;;;5.17;74.56
19259;BME280;9763;48.780;9.212;2023-01-26T07:13:11;98791.53;;;5.21;73.94
19259;BME280;9763;48.780;9.212;2023-01-26T07:16:35;98768.59;;;5.12;74.17
19259;BME280;9763;48.780;9.212;2023-01-26T07:19:58;98795.66;;;5.27;73.73
19259;BME280;9763;48.780;9.212;2023-01-26T07:23:22;98799.16;;;5.26;73.85
19259;BME280;9763;48.780;9.212;2023-01-26T07:26:47;98802.53;;;5.28;74.39
19259;BME280;9763;48.780;9.212;2023-01-26T07:30:12;98801.47;;;5.32;74.19
19259;BME280;9763;48.780;9.212;2023-01-26T07:33:36;98792.13;;;5.29;74.45
19259;BME280;9763;48.780;9.212;2023-01-26T07:37:00;98798.69;;;5.38;73.79
19259;BME280;9763;48.780;9.212;2023-01-26T07:40:23;98808.78;;;5.44;74.24
19259;BME280;9763;48.780;9.212;2023-01-26T07:43:48;98796.84;;;5.41;73.23
19259;BME280;9763;48.780;9.212;2023-01-26T07:47:13;98801.56;;;5.30;72.98
19259;BME280;9763;48.780;9.212;2023-01-26T07:50:37;98804.38;;;5.24;73.40
19259;BME280;9763;48.780;9.212;2023-01-26T07:54:00;98803.53;;;5.24;73.79
19259;BME280;9763;48.780;9.212;2023-01-26T07:57:24;98807.75;;;5.26;74.25
19259;BME280;9763;48.780;9.212;2023-01-26T08:00:49;98798.28;;;5.25;73.79
19259;BME280;9763;48.780;9.212;2023-01-26T08:04:12;98799.88;;;5.29;73.82
19259;BME280;9763;48.780;9.212;2023-01-26T08:07:36;98798.84;;;5.33;74.41
19259;BME280;9763;48.780;9.212;2023-01-26T08:11:01;98789.34;;;5.34;74.19
19259;BME280;9763;48.780;9.212;2023-01-26T08:14:24;98801.28;;;5.38;73.58
19259;BME280;9763;48.780;9.212;2023-01-26T08:18:08;98803.81;;;5.39;73.82
19259;BME280;9763;48.780;9.212;2023-01-26T08:21:32;98796.88;;;5.40;74.06
19259;BME280;9763;48.780;9.212;2023-01-26T08:24:55;98799.97;;;5.50;73.62
19259;BME280;9763;48.780;9.212;2023-01-26T08:28:19;98792.88;;;5.55;73.39
19259;BME280;9763;48.780;9.212;2023-01-26T08:31:43;98793.56;;;5.58;73.60
19259;BME280;9763;48.780;9.212;2023-01-26T08:35:09;98798.69;;;5.60;74.10
19259;BME280;9763;48.780;9.212;2023-01-26T08:38:33;98784.91;;;5.59;73.84
19259;BME280;9763;48.780;9.212;2023-01-26T08:41:56;98788.19;;;5.64;73.34
19259;BME280;9763;48.780;9.212;2023-01-26T08:45:20;98789.03;;;5.65;73.80
19259;BME280;9763;48.780;9.212;2023-01-26T08:48:43;98790.56;;;5.69;73.63
19259;BME280;9763;48.780;9.212;2023-01-26T08:52:08;98786.22;;;5.69;73.82
19259;BME280;9763;48.780;9.212;2023-01-26T08:55:33;98775.19;;;5.66;73.43
19259;BME280;9763;48.780;9.212;2023-01-26T08:58:56;98787.03;;;5.71;73.24
19259;BME280;9763;48.780;9.212;2023-01-26T09:02:20;98779.13;;;5.74;73.57
19259;BME280;9763;48.780;9.212;2023-01-26T09:05:43;98784.06;;;5.80;72.97
19259;BME280;9763;48.780;9.212;2023-01-26T09:09:08;98783.88;;;5.85;73.19
19259;BME280;9763;48.780;9.212;2023-01-26T09:12:34;98782.09;;;5.87;73.63
19259;BME280;9763;48.780;9.212;2023-01-26T09:15:57;98772.69;;;5.85;73.32
19259;BME280;9763;48.780;9.212;2023-01-26T09:19:21;98776.03;;;5.88;72.93
19259;BME280;9763;48.780;9.212;2023-01-26T09:22:45;98779.50;;;5.87;73.04
19259;BME280;9763;48.780;9.212;2023-01-26T09:26:11;98764.34;;;5.78;73.27
19259;BME280;9763;48.780;9.212;2023-01-26T09:29:34;98782.19;;;5.84;73.48
19259;BME280;9763;48.780;9.212;2023-01-26T09:32:59;98791.06;;;5.78;73.02
19259;BME280;9763;48.780;9.212;2023-01-26T09:36:23;98792.75;;;5.79;73.00
19259;BME280;9763;48.780;9.212;2023-01-26T09:39:50;98783.59;;;5.71;73.75
19259;BME280;9763;48.780;9.212;2023-01-26T09:43:29;98799.81;;;5.76;73.76
19259;BME280;9763;48.780;9.212;2023-01-26T09:47:05;98797.25;;;5.74;73.22
19259;BME280;9763;48.780;9.212;2023-01-26T09:50:39;98796.38;;;5.75;73.09
19259;BME280;9763;48.780;9.212;2023-01-26T09:54:15;98798.22;;;5.72;73.15
19259;BME280;9763;48.780;9.212;2023-01-26T09:57:48;98789.81;;;5.67;73.42
19259;BME280;9763;48.780;9.212;2023-01-26T10:01:21;98785.28;;;5.50;72.37
19259;BME280;9763;48.780;9.212;2023-01-26T10:04:51;98781.34;;;5.40;72.97
19259;BME280;9763;48.780;9.212;2023-01-26T10:08:20;98779.84;;;5.34;72.94
19259;BME280;9763;48.780;9.212;2023-01-26T10:11:48;98788.28;;;5.39;73.17
19259;BME280;9763;48.780;9.212;2023-01-26T10:15:27;98796.31;;;5.32;72.93
19259;BME280;9763;48.780;9.212;2023-01-26T10:19:02;98789.78;;;5.22;72.46
19259;BME280;9763;48.780;9.212;2023-01-26T10:22:35;98781.53;;;5.12;72.07
19259;BME280;9763;48.780;9.212;2023-01-26T10:26:11;98777.50;;;5.05;73.29
19259;BME280;9763;48.780;9.212;2023-01-26T10:29:35;98778.06;;;5.13;73.63
19259;BME280;9763;48.780;9.212;2023-01-26T10:32:59;98782.03;;;5.22;73.35
19259;BME280;9763;48.780;9.212;2023-01-26T10:36:30;98713.88;;;4.78;72.39
19259;BME280;9763;48.780;9.212;2023-01-26T10:40:02;98784.81;;;5.17;72.35
19259;BME280;9763;48.780;9.212;2023-01-26T10:43:26;98780.88;;;5.07;72.62
19259;BME280;9763;48.780;9.212;2023-01-26T10:47:09;98784.97;;;5.13;73.00
19259;BME280;9763;48.780;9.212;2023-01-26T10:50:36;98788.47;;;5.12;72.49
19259;BME280;9763;48.780;9.212;2023-01-26T10:54:22;98780.81;;;5.08;72.87
19259;BME280;9763;48.780;9.212;2023-01-26T10:57:47;98784.28;;;5.07;73.25
19259;BME280;9763;48.780;9.212;2023-01-26T11:01:11;98775.56;;;5.10;73.64
19259;BME280;9763;48.780;9.212;2023-01-26T11:04:37;98788.19;;;5.19;73.27
19259;BME280;9763;48.780;9.212;2023-01-26T11:08:01;98772.53;;;5.22;73.63
19259;BME280;9763;48.780;9.212;2023-01-26T11:11:29;98777.50;;;5.28;73.09
19259;BME280;9763;48.780;9.212;2023-01-26T11:15:00;98780.69;;;5.35;73.57
19259;BME280;9763;48.780;9.212;2023-01-26T11:18:39;98766.66;;;5.40;73.35
19259;BME280;9763;48.780;9.212;2023-01-26T11:22:07;98763.00;;;5.46;72.95
19259;BME280;9763;48.780;9.212;2023-01-26T11:25:47;98758.53;;;5.50;73.45
19259;BME280;9763;48.780;9.212;2023-01-26T11:29:46;98755.84;;;5.53;73.26
19259;BME280;9763;48.780;9.212;2023-01-26T11:33:23;98753.25;;;5.53;73.20
19259;BME280;9763;48.780;9.212;2023-01-26T11:37:10;98757.66;;;5.51;73.38
19259;BME280;9763;48.780;9.212;2023-01-26T11:40:47;98749.94;;;5.49;72.84
19259;BME280;9763;48.780;9.212;2023-01-26T11:44:33;98756.91;;;5.47;73.32
19259;BME280;9763;48.780;9.212;2023-01-26T11:48:16;98748.41;;;5.43;72.91
19259;BME280;9763;48.780;9.212;2023-01-26T11:51:59;98741.63;;;5.41;73.48
19259;BME280;9763;48.780;9.212;2023-01-26T11:55:41;98742.34;;;5.44;73.18
19259;BME280;9763;48.780;9.212;2023-01-26T11:59:16;98735.47;;;5.43;72.90
19259;BME280;9763;48.780;9.212;2023-01-26T12:02:49;98732.28;;;5.37;72.49
19259;BME280;9763;48.780;9.212;2023-01-26T12:06:18;98729.81;;;5.34;72.41
19259;BME280;9763;48.780;9.212;2023-01-26T12:09:45;98710.28;;;5.27;72.36
19259;BME280;9763;48.780;9.212;2023-01-26T12:13:18;98723.53;;;5.41;73.13
19259;BME280;9763;48.780;9.212;2023-01-26T12:17:01;98713.81;;;5.46;73.18
19259;BME280;9763;48.780;9.212;2023-01-26T12:20:45;98699.97;;;5.47;72.95
19259;BME280;9763;48.780;9.212;2023-01-26T12:24:21;98715.13;;;5.56;73.22
19259;BME280;9763;48.780;9.212;2023-01-26T12:28:19;98711.69;;;5.56;73.39
19259;BME280;9763;48.780;9.212;2023-01-26T12:31:52;98704.72;;;5.58;73.23
19259;BME280;9763;48.780;9.212;2023-01-26T12:35:45;98702.19;;;5.56;72.57
19259;BME280;9763;48.780;9.212;2023-01-26T12:39:15;98693.72;;;5.53;72.79
19259;BME280;9763;48.780;9.212;2023-01-26T12:42:49;98689.38;;;5.53;73.24
19259;BME280;9763;48.780;9.212;2023-01-26T12:46:16;98676.72;;;5.46;73.07
19259;BME280;9763;48.780;9.212;2023-01-26T12:49:51;98681.69;;;5.52;73.09
19259;BME280;9763;48.780;9.212;2023-01-26T12:53:23;98679.16;;;5.50;72.49
19259;BME280;9763;48.780;9.212;2023-01-26T12:56:55;98669.81;;;5.46;73.18
19259;BME280;9763;48.780;9.212;2023-01-26T13:00:24;98685.16;;;5.51;72.73
19259;BME280;9763;48.780;9.212;2023-01-26T13:03:54;98685.97;;;5.53;72.71
19259;BME280;9763;48.780;9.212;2023-01-26T13:07:28;98683.44;;;5.51;73.23
19259;BME280;9763;48.780;9.212;2023-01-26T13:10:54;98686.00;;;5.51;73.33
19259;BME280;9763;48.780;9.212;2023-01-26T13:14:28;98679.25;;;5.47;73.23
19259;BME280;9763;48.780;9.212;2023-01-26T13:17:59;98676.94;;;5.41;73.02
19259;BME280;9763;48.780;9.212;2023-01-26T13:21:26;98677.09;;;5.36;73.33
19259;BME280;9763;48.780;9.212;2023-01-26T13:24:56;98674.63;;;5.33;72.71
19259;BME280;9763;48.780;9.212;2023-01-26T13:28:27;98672.03;;;5.33;72.94
19259;BME280;9763;48.780;9.212;2023-01-26T13:31:52;98663.31;;;5.36;73.04
19259;BME280;9763;48.780;9.212;2023-01-26T13:35:20;98667.38;;;5.43;72.63
19259;BME280;9763;48.780;9.212;2023-01-26T13:38:55;98667.28;;;5.44;73.10
19259;BME280;9763;48.780;9.212;2023-01-26T13:42:26;98652.81;;;5.40;72.97
19259;BME280;9763;48.780;9.212;2023-01-26T13:46:18;98662.78;;;5.50;72.53
19259;BME280;9763;48.780;9.212;2023-01-26T13:49:44;98668.75;;;5.52;72.42
19259;BME280;9763;48.780;9.212;2023-01-26T13:53:34;98666.94;;;5.54;72.30
19259;BME280;9763;48.780;9.212;2023-01-26T13:57:04;98669.53;;;5.54;72.80
19259;BME280;9763;48.780;9.212;2023-01-26T14:00:27;98671.97;;;5.57;72.94
19259;BME280;9763;48.780;9.212;2023-01-26T14:04:04;98672.81;;;5.57;72.85
19259;BME280;9763;48.780;9.212;2023-01-26T14:07:34;98672.81;;;5.57;72.98
19259;BME280;9763;48.780;9.212;2023-01-26T14:11:04;98673.72;;;5.56;72.39
19259;BME280;9763;48.780;9.212;2023-01-26T14:14:31;98673.97;;;5.50;73.01
19259;BME280;9763;48.780;9.212;2023-01-26T14:17:59;98673.06;;;5.51;73.02
19259;BME280;9763;48.780;9.212;2023-01-26T14:21:25;98677.41;;;5.51;72.24
19259;BME280;9763;48.780;9.212;2023-01-26T14:24:52;98687.97;;;5.44;72.12
19259;BME280;9763;48.780;9.212;2023-01-26T14:28:21;98676.56;;;5.28;72.45
19259;BME280;9763;48.780;9.212;2023-01-26T14:31:48;98667.50;;;5.18;72.34
19259;BME280;9763;48.780;9.212;2023-01-26T14:35:20;98687.94;;;5.24;72.76
19259;BME280;9763;48.780;9.212;2023-01-26T14:38:49;98679.53;;;5.19;72.52
19259;BME280;9763;48.780;9.212;2023-01-26T14:42:16;98687.88;;;5.26;72.45
19259;BME280;9763;48.780;9.212;2023-01-26T14:45:47;98693.06;;;5.26;72.48
19259;BME280;9763;48.780;9.212;2023-01-26T14:49:15;98690.47;;;5.26;72.99
19259;BME280;9763;48.780;9.212;2023-01-26T14:52:44;98693.38;;;5.18;72.14
19259;BME280;9763;48.780;9.212;2023-01-26T14:56:17;98695.38;;;5.10;72.43
19259;BME280;9763;48.780;9.212;2023-01-26T14:59:42;98693.09;;;5.02;72.76
19259;BME280;9763;48.780;9.212;2023-01-26T15:03:15;98696.47;;;5.04;72.56
19259;BME280;9763;48.780;9.212;2023-01-26T15:06:43;98701.41;;;5.11;73.19
19259;BME280;9763;48.780;9.212;2023-01-26T15:10:34;98706.53;;;5.12;73.13
19259;BME280;9763;48.780;9.212;2023-01-26T15:14:00;98710.75;;;5.15;72.52
19259;BME280;9763;48.780;9.212;2023-01-26T15:17:35;98710.63;;;5.18;72.61
19259;BME280;9763;48.780;9.212;2023-01-26T15:21:10;98701.28;;;5.14;72.71
19259;BME280;9763;48.780;9.212;2023-01-26T15:24:34;98707.06;;;5.20;73.08
19259;BME280;9763;48.780;9.212;2023-01-26T15:27:59;98708.69;;;5.23;72.64
19259;BME280;9763;48.780;9.212;2023-01-26T15:31:30;98706.09;;;5.23;72.78
19259;BME280;9763;48.780;9.212;2023-01-26T15:35:21;98719.72;;;5.28;72.59
19259;BME280;9763;48.780;9.212;2023-01-26T15:38:46;98718.75;;;5.30;72.24
19259;BME280;9763;48.780;9.212;2023-01-26T15:42:14;98714.44;;;5.31;72.85
19259;BME280;9763;48.780;9.212;2023-01-26T15:45:39;98711.06;;;5.29;72.39
19259;BME280;9763;48.780;9.212;2023-01-26T15:49:06;98706.34;;;5.17;72.30
19259;BME280;9763;48.780;9.212;2023-01-26T15:52:29;98709.00;;;5.15;72.71
19259;BME280;9763;48.780;9.212;2023-01-26T15:55:53;98709.06;;;5.14;72.39
19259;BME280;9763;48.780;9.212;2023-01-26T15:59:18;98714.16;;;5.15;72.82
19259;BME280;9763;48.780;9.212;2023-01-26T16:02:42;98702.97;;;5.15;72.49
19259;BME280;9763;48.780;9.212;2023-01-26T16:06:18;98708.94;;;5.17;72.43
19259;BME280;9763;48.780;9.212;2023-01-26T16:09:43;98711.38;;;5.20;72.28
19259;BME280;9763;48.780;9.212;2023-01-26T16:13:11;98716.56;;;5.20;72.39
19259;BME280;9763;48.780;9.212;2023-01-26T16:16:35;98719.25;;;5.18;72.30
19259;BME280;9763;48.780;9.212;2023-01-26T16:19:58;98717.50;;;5.19;72.35
19259;BME280;9763;48.780;9.212;2023-01-26T16:23:26;98709.72;;;5.19;72.85
19259;BME280;9763;48.780;9.212;2023-01-26T16:26:50;98713.97;;;5.20;72.36
19259;BME280;9763;48.780;9.212;2023-01-26T16:30:14;98720.00;;;5.20;72.28
19259;BME280;9763;48.780;9.212;2023-01-26T16:33:38;98697.97;;;5.10;72.74
19259;BME280;9763;48.780;9.212;2023-01-26T16:37:02;98708.81;;;5.20;72.16
19259;BME280;9763;48.780;9.212;2023-01-26T16:40:27;98720.72;;;5.24;72.46
19259;BME280;9763;48.780;9.212;2023-01-26T16:43:54;98717.19;;;5.26;72.14
19259;BME280;9763;48.780;9.212;2023-01-26T16:47:17;98720.63;;;5.27;72.29
19259;BME280;9763;48.780;9.212;2023-01-26T16:50:43;98710.28;;;5.27;72.18
19259;BME280;9763;48.780;9.212;2023-01-26T16:54:06;98707.69;;;5.27;72.76
19259;BME280;9763;48.780;9.212;2023-01-26T16:57:31;98706.00;;;5.26;72.28
19259;BME280;9763;48.780;9.212;2023-01-26T17:00:55;98694.38;;;5.14;72.67
19259;BME280;9763;48.780;9.212;2023-01-26T17:04:20;98713.66;;;5.29;72.64
19259;BME280;9763;48.780;9.212;2023-01-26T17:07:44;98719.72;;;5.28;72.62
19259;BME280;9763;48.780;9.212;2023-01-26T17:11:15;98717.91;;;5.30;72.42
19259;BME280;9763;48.780;9.212;2023-01-26T17:14:40;98714.50;;;5.29;73.03
19259;BME280;9763;48.780;9.212;2023-01-26T17:18:04;98713.59;;;5.30;72.56
19259;BME280;9763;48.780;9.212;2023-01-26T17:21:27;98716.34;;;5.26;72.80
19259;BME280;9763;48.780;9.212;2023-01-26T17:24:51;98723.50;;;5.19;72.28
19259;BME280;9763;48.780;9.212;2023-01-26T17:28:14;98724.03;;;5.05;71.89
19259;BME280;9763;48.780;9.212;2023-01-26T17:31:39;98723.81;;;4.88;71.69
19259;BME280;9763;48.780;9.212;2023-01-26T17:35:04;98725.94;;;4.77;72.01
19259;BME280;9763;48.780;9.212;2023-01-26T17:38:28;98710.19;;;4.60;72.07
19259;BME280;9763;48.780;9.212;2023-01-26T17:41:51;98721.63;;;4.54;72.04
19259;BME280;9763;48.780;9.212;2023-01-26T17:45:16;98718.34;;;4.49;72.77
19259;BME280;9763;48.780;9.212;2023-01-26T17:48:41;98706.75;;;4.36;72.49
19259;BME280;9763;48.780;9.212;2023-01-26T17:52:06;98726.69;;;4.32;72.30
19259;BME280;9763;48.780;9.212;2023-01-26T17:55:34;98727.75;;;4.27;72.57
19259;BME280;9763;48.780;9.212;2023-01-26T17:58:58;98732.09;;;4.25;72.37
19259;BME280;9763;48.780;9.212;2023-01-26T18:02:22;98726.22;;;4.21;72.91
19259;BME280;9763;48.780;9.212;2023-01-26T18:05:51;98725.44;;;4.19;72.46
19259;BME280;9763;48.780;9.212;2023-01-26T18:09:14;98725.47;;;4.18;72.63
19259;BME280;9763;48.780;9.212;2023-01-26T18:12:38;98724.78;;;4.13;72.51
19259;BME280;9763;48.780;9.212;2023-01-26T18:16:04;98729.94;;;4.13;72.47
19259;BME280;9763;48.780;9.212;2023-01-26T18:19:29;98733.50;;;4.10;72.78
19259;BME280;9763;48.780;9.212;2023-01-26T18:22:54;98733.41;;;4.12;72.66
19259;BME280;9763;48.780;9.212;2023-01-26T18:26:20;98731.06;;;4.06;72.68
19259;BME280;9763;48.780;9.212;2023-01-26T18:29:44;98738.94;;;4.01;72.90
19259;BME280;9763;48.780;9.212;2023-01-26T18:33:09;98743.38;;;3.97;72.96
19259;BME280;9763;48.780;9.212;2023-01-26T18:36:32;98740.00;;;3.95;73.42
19259;BME280;9763;48.780;9.212;2023-01-26T18:39:57;98738.16;;;3.99;72.95
19259;BME280;9763;48.780;9.212;2023-01-26T18:43:21;98737.97;;;4.05;73.56
19259;BME280;9763;48.780;9.212;2023-01-26T18:46:45;98732.75;;;4.07;73.05
19259;BME280;9763;48.780;9.212;2023-01-26T18:50:10;98738.81;;;4.06;72.79
19259;BME280;9763;48.780;9.212;2023-01-26T18:53:34;98742.31;;;4.03;72.97
19259;BME280;9763;48.780;9.212;2023-01-26T18:57:01;98739.06;;;3.98;72.91
19259;BME280;9763;48.780;9.212;2023-01-26T19:00:26;98730.81;;;3.87;72.66